Time;durP1;ratioP1;P1;durP2;ratioP2;P2;SDS_P1;SDS_P2;PMS_P1;PMS_P2;Temp;Humidity;BMP_temperature;BMP_pressure;BME280_temperature;BME280_humidity;BME280_pressure;Samples;Min_cycle;Max_cycle;Signal;HPM_P1;HPM_P2
2022/08/04 00:01:18;;;;;;;6.38;2.60;;;;;;;23.76;78.07;101397.28;5006172;28;20065;-62
2022/08/04 00:04:04;;;;;;;6.22;2.78;;;;;;;23.73;78.21;101393.03;4989525;28;20025;-63
2022/08/04 00:06:48;;;;;;;6.07;2.75;;;;;;;23.72;77.87;101392.16;4989042;28;20110;-63
2022/08/04 00:09:19;;;;;;;11.27;2.40;;;;;;;23.70;78.07;101388.75;5007137;28;20030;-62
2022/08/04 00:11:48;;;;;;;3.55;2.47;;;;;;;23.68;78.00;101389.84;4989789;28;20052;-61
2022/08/04 00:14:14;;;;;;;;;;;;;;;23.68;78.01;101390.69;5005980;28;20037;-61
2022/08/04 00:16:40;;;;;;;7.28;2.55;;;;;;;23.66;77.66;101389.97;5007318;28;20012;-62
2022/08/04 00:19:10;;;;;;;4.53;2.25;;;;;;;23.66;77.30;101398.03;4989059;28;20726;-62
2022/08/04 00:21:38;;;;;;;3.95;2.55;;;;;;;23.63;77.09;101390.22;5007193;28;20026;-62
2022/08/04 00:24:04;;;;;;;3.45;2.15;;;;;;;23.63;77.01;101382.13;5007227;28;20510;-63
2022/08/04 00:26:31;;;;;;;4.30;2.47;;;;;;;23.62;76.91;101384.97;5006895;28;20034;-61
2022/08/04 00:28:56;;;;;;;7.63;2.42;;;;;;;23.56;77.49;101376.41;4988087;28;20030;-62
2022/08/04 00:31:22;;;;;;;7.57;2.50;;;;;;;23.50;77.63;101374.22;5006826;28;20036;-62
2022/08/04 00:33:47;;;;;;;7.45;2.70;;;;;;;23.41;78.09;101378.50;5006315;28;20129;-62
2022/08/04 00:36:13;;;;;;;5.55;2.55;;;;;;;23.36;78.37;101375.31;5006509;28;20060;-62
2022/08/04 00:38:42;;;;;;;7.18;2.50;;;;;;;23.31;78.01;101375.69;5006746;28;20493;-62
2022/08/04 00:41:10;;;;;;;;;;;;;;;23.23;78.32;101370.91;5007075;28;20088;-61
2022/08/04 00:44:17;;;;;;;10.10;2.75;;;;;;;23.17;78.56;101379.47;5006621;28;20009;-63
2022/08/04 00:46:50;;;;;;;2.40;2.08;;;;;;;23.21;78.03;101383.63;5005340;28;20504;-62
2022/08/04 00:49:32;;;;;;;7.75;3.20;;;;;;;23.26;77.64;101387.78;4988178;28;20496;-62
2022/08/04 00:52:25;;;;;;;8.05;3.60;;;;;;;23.14;77.99;101387.78;4988564;28;20757;-62
2022/08/04 00:55:15;;;;;;;6.10;3.75;;;;;;;23.02;78.84;101389.59;4988982;28;20018;-61
2022/08/04 00:57:57;;;;;;;5.28;3.60;;;;;;;22.93;79.24;101380.44;5006472;28;20105;-61
2022/08/04 01:00:23;;;;;;;9.90;4.03;;;;;;;22.90;79.53;101377.97;5005514;28;20021;-62
2022/08/04 01:03:01;;;;;;;8.15;3.80;;;;;;;22.83;80.59;101379.44;4972561;28;20584;-61
2022/08/04 01:05:53;;;;;;;8.40;4.32;;;;;;;22.84;80.28;101373.09;4987689;28;20038;-62
2022/08/04 01:08:37;;;;;;;7.40;4.00;;;;;;;22.79;80.81;101364.53;5005766;28;20041;-62
2022/08/04 01:11:14;;;;;;;7.05;3.53;;;;;;;22.78;80.70;101352.09;5006542;28;20089;-61
2022/08/04 01:14:24;;;;;;;6.75;3.30;;;;;;;22.79;80.69;101359.16;5005568;28;20053;-61
2022/08/04 01:16:57;;;;;;;8.43;3.88;;;;;;;22.77;80.95;101361.09;5006345;28;20096;-62
2022/08/04 01:19:54;;;;;;;10.32;3.58;;;;;;;22.79;81.38;101353.78;5005199;28;20029;-63
2022/08/04 01:22:31;;;;;;;6.43;3.83;;;;;;;22.79;81.46;101357.31;4988137;28;20080;-63
2022/08/04 01:25:34;;;;;;;9.18;3.78;;;;;;;22.74;81.50;101358.66;5004926;28;20109;-62
2022/08/04 01:28:24;;;;;;;8.45;3.67;;;;;;;22.72;81.47;101361.47;5004602;28;20096;-61
2022/08/04 01:30:54;;;;;;;7.35;3.63;;;;;;;22.79;81.39;101361.84;5005800;28;20395;-62
2022/08/04 01:33:21;;;;;;;5.93;3.28;;;;;;;22.87;80.78;101354.03;5005408;28;20022;-62
2022/08/04 01:36:00;;;;;;;6.53;3.50;;;;;;;22.79;81.32;101368.06;4987947;28;20025;-63
2022/08/04 01:38:36;;;;;;;6.63;3.22;;;;;;;22.76;80.97;101365.66;4988021;28;20088;-63
2022/08/04 01:41:21;;;;;;;9.43;3.72;;;;;;;22.65;80.89;101353.03;4986998;28;20044;-62
2022/08/04 01:43:46;;;;;;;10.43;4.30;;;;;;;22.55;81.24;101352.00;4986528;28;20038;-62
2022/08/04 01:46:15;;;;;;;8.35;4.68;;;;;;;22.49;81.86;101347.97;5004622;28;20038;-62
2022/08/04 01:48:45;;;;;;;;;;;;;;;22.48;82.07;101354.28;5005520;28;20018;-62
2022/08/04 01:51:10;;;;;;;8.98;3.97;;;;;;;22.53;81.44;101351.25;4987681;28;19971;-62
2022/08/04 01:53:45;;;;;;;10.80;5.07;;;;;;;22.41;82.22;101358.44;5005908;28;20026;-62
2022/08/04 01:56:11;;;;;;;8.95;4.07;;;;;;;22.34;82.40;101353.53;4987528;28;20491;-62
2022/08/04 01:58:38;;;;;;;7.40;4.53;;;;;;;22.36;82.44;101352.56;5004317;28;20508;-62
2022/08/04 02:01:07;;;;;;;11.45;4.50;;;;;;;22.34;82.54;101347.31;5005409;28;20038;-62
2022/08/04 02:03:33;;;;;;;7.97;4.03;;;;;;;22.35;82.63;101338.28;4986961;28;20026;-62
2022/08/04 02:06:13;;;;;;;11.82;4.68;;;;;;;22.37;82.42;101339.03;5005459;28;20026;-61
2022/08/04 02:08:49;;;;;;;7.15;3.85;;;;;;;22.42;82.20;101336.84;5004884;28;20037;-63
2022/08/04 02:11:17;;;;;;;15.23;4.53;;;;;;;22.44;82.62;101329.53;5004983;28;20036;-63
2022/08/04 02:13:50;;;;;;;11.80;4.28;;;;;;;22.45;82.46;101338.41;4986901;28;20033;-62
2022/08/04 02:16:27;;;;;;;9.63;4.20;;;;;;;22.49;82.14;101333.69;4986640;28;20038;-63
2022/08/04 02:19:19;;;;;;;8.02;3.95;;;;;;;22.46;81.99;101335.63;4987602;28;20101;-62
2022/08/04 02:21:47;;;;;;;11.95;4.15;;;;;;;22.45;82.24;101333.91;5004183;28;20029;-64
2022/08/04 02:24:14;;;;;;;8.73;4.10;;;;;;;22.46;82.03;101335.63;4987185;28;20105;-63
2022/08/04 02:26:41;;;;;;;7.07;4.00;;;;;;;22.49;81.95;101323.81;4987238;28;20034;-64
2022/08/04 02:29:12;;;;;;;9.60;4.15;;;;;;;22.51;82.10;101332.59;5003191;28;20117;-62
2022/08/04 02:31:46;;;;;;;10.45;4.25;;;;;;;22.53;81.96;101329.78;5001904;28;20040;-61
2022/08/04 02:34:24;;;;;;;4.90;3.45;;;;;;;22.57;81.54;101324.09;4986588;28;20029;-62
2022/08/04 02:36:50;;;;;;;5.75;3.70;;;;;;;22.65;81.11;101318.13;5003598;28;20025;-62
2022/08/04 02:39:18;;;;;;;6.55;3.33;;;;;;;22.68;80.99;101325.09;5004287;28;20546;-61
2022/08/04 02:41:45;;;;;;;5.43;3.70;;;;;;;22.67;80.79;101320.69;5004026;28;20397;-62
2022/08/04 02:44:12;;;;;;;9.93;3.83;;;;;;;22.65;80.76;101318.13;5003255;28;20044;-61
2022/08/04 02:46:38;;;;;;;8.75;3.78;;;;;;;22.66;80.75;101325.19;4984975;28;20030;-61
2022/08/04 02:49:08;;;;;;;6.78;3.85;;;;;;;22.67;80.44;101323.38;5003918;28;20029;-62
2022/08/04 02:51:41;;;;;;;13.18;3.85;;;;;;;22.63;80.52;101317.38;4985659;28;20719;-62
2022/08/04 02:54:07;;;;;;;11.48;3.60;;;;;;;22.63;80.71;101313.84;5004604;28;20029;-64
2022/08/04 02:56:34;;;;;;;8.15;3.47;;;;;;;22.65;80.76;101319.94;5003862;28;20176;-62
2022/08/04 02:59:05;;;;;;;4.20;3.50;;;;;;;22.62;80.62;101318.38;5003557;28;20025;-62
2022/08/04 03:01:31;;;;;;;4.80;2.95;;;;;;;22.64;80.49;101319.13;5008305;28;20036;-62
2022/08/04 03:04:11;;;;;;;7.28;3.75;;;;;;;22.58;80.69;101322.28;5007882;28;20380;-62
2022/08/04 03:06:45;;;;;;;5.97;3.33;;;;;;;22.64;80.51;101320.94;4990329;28;20029;-63
2022/08/04 03:09:13;;;;;;;4.80;3.25;;;;;;;22.70;80.12;101317.78;5007484;28;20057;-62
2022/08/04 03:11:56;;;;;;;12.63;3.80;;;;;;;22.77;79.96;101319.00;5008071;28;20029;-62
2022/08/04 03:14:24;;;;;;;6.32;3.50;;;;;;;22.78;79.52;101314.50;4989028;28;20307;-61
2022/08/04 03:16:55;;;;;;;7.07;3.90;;;;;;;22.72;79.69;101319.34;5008231;28;20473;-63
2022/08/04 03:19:51;;;;;;;7.82;3.55;;;;;;;22.70;79.79;101321.28;5007208;28;20091;-62
2022/08/04 03:22:26;;;;;;;5.85;3.75;;;;;;;22.66;80.09;101319.00;5007805;28;20026;-63
2022/08/04 03:25:12;;;;;;;8.27;4.72;;;;;;;22.58;80.30;101317.72;4990595;28;20036;-62
2022/08/04 03:28:19;;;;;;;10.32;4.20;;;;;;;22.56;80.44;101313.44;5007571;28;20030;-61
2022/08/04 03:31:06;;;;;;;6.68;4.40;;;;;;;22.50;80.21;101298.66;4984227;28;20804;-62
2022/08/04 03:33:59;;;;;;;7.28;4.30;;;;;;;22.36;80.97;101307.78;4987118;28;20031;-62
2022/08/04 03:36:30;;;;;;;7.47;4.30;;;;;;;22.27;80.97;101309.34;4987467;28;20029;-62
2022/08/04 03:39:20;;;;;;;9.13;4.55;;;;;;;22.11;81.90;101301.63;4987774;28;20585;-63
2022/08/04 03:42:00;;;;;;;13.43;5.43;;;;;;;22.06;82.34;101299.28;4987883;28;20477;-63
2022/08/04 03:44:46;;;;;;;12.25;5.40;;;;;;;22.03;82.54;101301.34;4969716;28;20113;-61
2022/08/04 03:47:29;;;;;;;10.18;4.88;;;;;;;21.96;83.36;101309.84;4988380;28;20046;-62
2022/08/04 03:50:18;;;;;;;11.23;5.35;;;;;;;21.92;83.44;101304.84;4970877;28;20118;-62
2022/08/04 03:53:08;;;;;;;6.10;4.28;;;;;;;21.98;83.15;101300.81;4985944;28;20555;-62
2022/08/04 03:55:52;;;;;;;10.05;5.53;;;;;;;22.03;82.99;101296.81;4991752;28;20038;-62
2022/08/04 03:58:39;;;;;;;8.73;5.07;;;;;;;22.04;82.91;101298.56;5002339;28;20382;-61
2022/08/04 04:01:17;;;;;;;11.50;5.07;;;;;;;21.90;83.37;101304.09;5006896;28;20048;-62
2022/08/04 04:03:48;;;;;;;8.95;5.57;;;;;;;21.84;83.69;101300.91;5007177;28;20041;-63
2022/08/04 04:06:32;;;;;;;9.60;5.43;;;;;;;22.02;83.05;101299.63;5006673;28;20444;-63
2022/08/04 04:09:12;;;;;;;7.15;4.65;;;;;;;21.92;83.36;101299.47;5007131;28;20045;-61
2022/08/04 04:11:52;;;;;;;10.43;4.90;;;;;;;21.85;83.69;101293.69;5006710;28;20111;-61
2022/08/04 04:14:36;;;;;;;9.38;4.40;;;;;;;21.86;83.51;101295.44;5003929;28;20080;-61
2022/08/04 04:17:08;;;;;;;9.02;4.45;;;;;;;21.84;83.64;101302.72;5005037;28;20032;-62
2022/08/04 04:19:37;;;;;;;11.18;4.57;;;;;;;21.83;83.48;101295.66;4988424;28;20053;-60
2022/08/04 04:22:08;;;;;;;10.93;4.88;;;;;;;21.84;83.78;101303.59;5006329;28;20709;-60
2022/08/04 04:24:54;;;;;;;8.40;4.47;;;;;;;21.91;83.23;101303.97;5006468;28;20038;-61
2022/08/04 04:27:31;;;;;;;9.27;4.20;;;;;;;22.00;82.92;101301.59;5002666;28;20552;-61
2022/08/04 04:30:05;;;;;;;14.60;4.50;;;;;;;21.97;82.75;101302.66;5005948;28;20469;-62
2022/08/04 04:32:43;;;;;;;6.80;4.25;;;;;;;21.94;82.69;101313.59;5005084;28;20027;-61
2022/08/04 04:35:22;;;;;;;11.07;3.73;;;;;;;21.96;82.80;101309.84;5005484;28;20041;-61
2022/08/04 04:37:53;;;;;;;8.93;4.65;;;;;;;22.01;82.46;101304.16;4988464;28;20022;-61
2022/08/04 04:40:31;;;;;;;7.50;3.78;;;;;;;22.02;82.21;101308.53;4982056;28;20501;-61
2022/08/04 04:43:16;;;;;;;10.15;4.30;;;;;;;22.02;82.07;101307.66;4985299;28;20578;-61
2022/08/04 04:46:02;;;;;;;12.13;4.10;;;;;;;21.99;82.33;101311.44;4988027;28;20430;-61
2022/08/04 04:48:47;;;;;;;7.53;3.72;;;;;;;22.08;82.20;101304.53;4987423;28;20034;-62
2022/08/04 04:51:15;;;;;;;7.72;3.65;;;;;;;22.16;81.62;101306.63;4998047;28;20049;-61
2022/08/04 04:53:55;;;;;;;5.88;3.33;;;;;;;22.24;80.95;101306.88;5004500;28;20030;-61
2022/08/04 04:56:44;;;;;;;8.65;3.80;;;;;;;22.28;80.78;101307.53;4986806;28;20025;-62
2022/08/04 04:59:14;;;;;;;10.30;3.45;;;;;;;22.33;80.36;101310.69;5004955;28;20026;-61
2022/08/04 05:02:13;;;;;;;9.93;3.92;;;;;;;22.31;80.55;101310.81;5003308;28;20034;-61
2022/08/04 05:04:57;;;;;;;8.98;3.75;;;;;;;22.36;80.57;101313.13;5004236;28;20036;-61
2022/08/04 05:07:40;;;;;;;6.57;3.05;;;;;;;22.49;80.14;101321.13;5005531;28;20709;-62
2022/08/04 05:10:29;;;;;;;6.20;3.20;;;;;;;22.56;79.87;101318.81;5000010;28;20033;-62
2022/08/04 05:13:01;;;;;;;;;;;;;;;22.66;79.58;101317.16;5001868;28;20026;-61
2022/08/04 05:15:30;;;;;;;9.35;3.90;;;;;;;22.69;79.36;101322.28;4987254;28;20511;-61
2022/08/04 05:17:56;;;;;;;11.07;3.83;;;;;;;22.59;79.77;101324.84;4988046;28;20097;-62
2022/08/04 05:20:26;;;;;;;6.97;3.90;;;;;;;22.61;79.75;101326.53;5004251;28;20132;-61
2022/08/04 05:22:59;;;;;;;9.82;3.55;;;;;;;22.64;79.62;101332.53;4987011;28;20450;-61
2022/08/04 05:25:27;;;;;;;9.52;3.45;;;;;;;22.65;79.68;101328.88;4987039;28;20049;-62
2022/08/04 05:28:04;;;;;;;9.43;3.77;;;;;;;22.64;79.73;101327.16;4977789;28;20061;-65
2022/08/04 05:30:47;;;;;;;13.93;3.17;;;;;;;22.63;79.88;101321.91;5004306;28;20283;-62
2022/08/04 05:33:13;;;;;;;11.23;3.45;;;;;;;22.57;79.99;101318.72;4987773;28;20032;-61
2022/08/04 05:35:45;;;;;;;9.52;3.85;;;;;;;22.53;80.29;101324.41;5005522;28;20432;-62
2022/08/04 05:38:13;;;;;;;7.70;3.45;;;;;;;22.51;80.31;101326.38;4986581;28;20033;-62
2022/08/04 05:40:39;;;;;;;8.77;3.50;;;;;;;22.53;80.35;101335.16;4987673;28;20044;-61
2022/08/04 05:43:05;;;;;;;8.55;3.42;;;;;;;22.46;80.60;101341.00;4986917;28;20492;-62
2022/08/04 05:45:33;;;;;;;5.15;3.72;;;;;;;22.52;80.60;101344.19;4981861;28;20034;-62
2022/08/04 05:48:01;;;;;;;8.18;3.38;;;;;;;22.42;80.96;101339.53;4985566;28;20485;-63
2022/08/04 05:50:26;;;;;;;12.43;3.70;;;;;;;22.41;81.05;101337.81;4988830;28;20105;-62
2022/08/04 05:52:52;;;;;;;9.23;4.10;;;;;;;22.40;81.34;101335.25;4987590;28;20109;-62
2022/08/04 05:55:17;;;;;;;12.48;4.10;;;;;;;22.31;81.40;101331.44;4986917;28;20022;-61
2022/08/04 05:57:45;;;;;;;7.00;3.95;;;;;;;22.32;81.66;101334.00;4986828;28;20029;-62
2022/08/04 06:00:11;;;;;;;8.15;3.35;;;;;;;22.33;81.99;101332.16;4987250;28;20030;-61
2022/08/04 06:02:36;;;;;;;8.13;3.22;;;;;;;22.36;82.05;101334.63;5001738;28;20025;-61
2022/08/04 06:05:05;;;;;;;12.90;3.58;;;;;;;22.33;82.20;101327.66;4992636;28;20030;-61
2022/08/04 06:07:30;;;;;;;9.85;3.15;;;;;;;22.35;82.16;101332.91;4976044;28;20030;-60
2022/08/04 06:09:56;;;;;;;9.90;3.72;;;;;;;22.38;82.46;101324.63;4993083;28;20642;-62
2022/08/04 06:12:27;;;;;;;10.45;3.65;;;;;;;22.37;82.73;101336.34;4976800;28;20026;-61
2022/08/04 06:14:54;;;;;;;12.98;3.03;;;;;;;22.40;82.85;101341.50;4979619;28;20034;-61
2022/08/04 06:17:32;;;;;;;12.65;3.38;;;;;;;22.41;83.17;101347.69;4986071;28;20522;-61
2022/08/04 06:19:59;;;;;;;13.25;3.20;;;;;;;22.42;83.44;101341.34;5003956;28;20045;-61
2022/08/04 06:22:27;;;;;;;11.75;3.30;;;;;;;22.43;83.35;101335.84;4985548;28;20036;-60
2022/08/04 06:24:53;;;;;;;13.98;3.75;;;;;;;22.45;83.58;101336.59;4985302;28;20026;-61
2022/08/04 06:27:19;;;;;;;9.63;3.20;;;;;;;22.52;83.67;101334.31;4983733;28;20033;-61
2022/08/04 06:29:45;;;;;;;12.90;2.78;;;;;;;22.58;83.83;101343.75;4985697;28;20030;-62
2022/08/04 06:34:51;;;;;;;11.50;3.07;;;;;;;22.72;83.61;101346.22;4987547;28;20480;-60
2022/08/04 06:37:17;;;;;;;11.23;3.05;;;;;;;22.77;83.61;101348.53;5003147;28;20277;-62
2022/08/04 06:39:42;;;;;;;8.45;2.95;;;;;;;22.75;83.97;101350.47;4986567;28;20037;-61
2022/08/04 06:42:08;;;;;;;7.97;2.70;;;;;;;22.93;83.93;101352.69;5003332;28;20030;-63
2022/08/04 06:44:34;;;;;;;12.70;3.17;;;;;;;22.99;84.48;101351.38;5003717;28;20087;-61
2022/08/04 06:47:00;;;;;;;11.18;3.10;;;;;;;23.17;83.98;101349.91;4986874;28;20045;-61
2022/08/04 06:49:25;;;;;;;10.32;3.10;;;;;;;23.29;83.73;101352.56;5003893;28;20219;-61
2022/08/04 06:51:51;;;;;;;15.25;3.20;;;;;;;23.27;83.36;101352.69;4985966;28;20453;-64
2022/08/04 06:54:17;;;;;;;28.25;3.35;;;;;;;23.39;82.92;101352.72;5003428;28;20619;-61
2022/08/04 06:56:44;;;;;;;25.45;3.20;;;;;;;23.52;82.46;101352.59;5003623;28;20116;-62
2022/08/04 06:59:10;;;;;;;24.90;3.50;;;;;;;23.40;82.12;101360.69;5003324;28;20041;-62
2022/08/04 07:01:36;;;;;;;8.55;2.45;;;;;;;23.54;81.35;101356.84;4992729;28;20018;-62
2022/08/04 07:04:02;;;;;;;9.32;2.75;;;;;;;23.63;80.59;101349.03;4998893;28;20514;-60
2022/08/04 07:06:27;;;;;;;15.90;2.50;;;;;;;23.72;79.96;101345.59;4992660;28;20032;-62
2022/08/04 07:08:55;;;;;;;11.50;2.58;;;;;;;23.71;79.57;101363.56;4992977;28;20101;-61
2022/08/04 07:11:21;;;;;;;15.10;2.65;;;;;;;23.94;79.33;101360.81;4993470;28;20066;-62
2022/08/04 07:13:48;;;;;;;8.35;2.38;;;;;;;23.92;79.04;101359.19;4974526;28;20022;-61
2022/08/04 07:16:14;;;;;;;7.65;2.25;;;;;;;24.01;78.22;101369.22;4977241;28;20045;-63
2022/08/04 07:18:39;;;;;;;6.45;2.10;;;;;;;24.13;77.97;101372.75;4977155;28;20385;-62
2022/08/04 07:21:05;;;;;;;11.40;2.90;;;;;;;24.27;77.47;101373.41;5003395;28;20026;-62
2022/08/04 07:23:31;;;;;;;14.82;2.83;;;;;;;24.32;77.82;101366.66;4992406;28;20346;-63
2022/08/04 07:25:57;;;;;;;12.35;2.88;;;;;;;24.30;77.10;101373.16;4993754;28;20500;-61
2022/08/04 07:28:29;;;;;;;7.78;2.75;;;;;;;24.38;76.80;101372.53;4991239;28;20033;-61
2022/08/04 07:30:56;;;;;;;5.30;2.20;;;;;;;24.36;75.77;101375.34;5001159;28;20065;-62
2022/08/04 07:33:22;;;;;;;9.05;2.50;;;;;;;24.46;75.46;101378.09;5001930;28;20224;-60
2022/08/04 07:35:52;;;;;;;10.05;2.42;;;;;;;24.55;74.90;101387.22;5003172;28;20022;-61
2022/08/04 07:38:17;;;;;;;9.30;2.05;;;;;;;24.59;74.10;101384.16;5002436;28;20037;-62
2022/08/04 07:40:43;;;;;;;7.20;2.40;;;;;;;24.66;73.50;101384.50;4998345;28;20034;-62
2022/08/04 07:43:09;;;;;;;17.30;2.92;;;;;;;24.61;73.64;101384.00;4975261;28;20034;-62
2022/08/04 07:45:35;;;;;;;7.85;2.25;;;;;;;24.46;74.36;101400.50;4993359;28;20521;-61
2022/08/04 07:48:02;;;;;;;10.20;2.63;;;;;;;24.46;72.90;101397.81;4996262;28;20089;-61
2022/08/04 07:50:28;;;;;;;10.87;2.80;;;;;;;24.54;72.04;101396.31;4975627;28;20596;-61
2022/08/04 07:52:53;;;;;;;10.23;2.00;;;;;;;24.60;71.86;101406.56;4988053;28;20109;-61
2022/08/04 07:55:19;;;;;;;6.88;1.63;;;;;;;24.63;71.88;101414.38;4990478;28;20018;-60
2022/08/04 07:57:45;;;;;;;6.00;2.25;;;;;;;24.54;71.66;101404.38;4995706;28;20400;-61
2022/08/04 08:00:13;;;;;;;7.97;1.80;;;;;;;24.60;71.05;101417.34;4995598;28;20034;-61
2022/08/04 08:02:40;;;;;;;13.38;2.28;;;;;;;24.56;70.94;101411.34;4997982;28;20029;-61
2022/08/04 08:05:09;;;;;;;4.68;1.88;;;;;;;24.60;70.38;101409.25;4997137;28;20052;-63
2022/08/04 08:07:35;;;;;;;6.38;1.95;;;;;;;24.53;70.34;101416.97;4979807;28;20019;-62
2022/08/04 08:10:00;;;;;;;4.55;2.08;;;;;;;24.55;70.16;101414.16;4996814;28;20026;-63
2022/08/04 08:12:26;;;;;;;6.90;2.20;;;;;;;24.64;70.35;101418.78;4995767;28;20686;-63
2022/08/04 08:14:51;;;;;;;13.45;2.60;;;;;;;24.53;68.61;101413.47;4977862;28;20042;-63
2022/08/04 08:17:17;;;;;;;10.65;2.05;;;;;;;24.70;67.63;101402.09;4997717;28;20203;-64
2022/08/04 08:19:42;;;;;;;5.53;2.15;;;;;;;24.78;66.82;101409.53;4998381;28;20041;-61
2022/08/04 08:22:09;;;;;;;7.13;2.03;;;;;;;24.98;66.79;101410.50;4982142;28;20041;-62
2022/08/04 08:24:35;;;;;;;7.55;1.75;;;;;;;25.15;66.11;101416.28;4984031;28;20144;-61
2022/08/04 08:27:05;;;;;;;15.75;2.08;;;;;;;25.31;65.14;101417.63;4987237;28;20021;-62
2022/08/04 08:29:35;;;;;;;8.73;2.00;;;;;;;25.45;64.70;101416.41;4988758;28;20403;-63
2022/08/04 08:32:02;;;;;;;11.20;2.28;;;;;;;25.56;64.64;101424.41;5000190;28;21035;-62
2022/08/04 08:34:28;;;;;;;5.30;1.85;;;;;;;25.83;63.82;101408.59;4994596;28;20392;-61
2022/08/04 08:37:02;;;;;;;5.82;2.13;;;;;;;25.84;64.31;101410.28;4985141;28;20030;-62
2022/08/04 08:39:31;;;;;;;12.35;2.58;;;;;;;25.98;62.95;101404.47;5004263;28;20030;-62
2022/08/04 08:42:18;;;;;;;5.85;1.63;;;;;;;26.29;61.98;101408.94;5002806;28;20030;-62
2022/08/04 08:45:14;;;;;;;14.55;2.38;;;;;;;26.36;60.47;101406.50;5003938;28;20084;-62
2022/08/04 08:48:13;;;;;;;20.38;2.70;;;;;;;26.37;59.08;101408.22;4986273;28;20029;-62
2022/08/04 08:50:57;;;;;;;5.40;1.75;;;;;;;26.52;57.69;101416.75;5003319;28;20026;-62
2022/08/04 08:53:34;;;;;;;4.43;2.05;;;;;;;26.64;58.29;101420.16;5003276;28;20030;-61
2022/08/04 08:56:19;;;;;;;10.57;2.35;;;;;;;26.66;58.10;101417.31;5003811;28;20026;-62
2022/08/04 08:59:02;;;;;;;17.42;2.22;;;;;;;26.83;57.41;101413.84;5002541;28;20041;-62
2022/08/04 09:01:44;;;;;;;10.18;2.13;;;;;;;27.00;56.56;101406.84;5002735;28;20117;-61
2022/08/04 09:04:32;;;;;;;7.47;1.95;;;;;;;27.07;55.33;101406.28;5003234;28;20112;-61
2022/08/04 09:07:18;;;;;;;4.30;1.77;;;;;;;27.11;54.45;101413.06;5002673;28;20555;-62
2022/08/04 09:10:38;;;;;;;4.82;1.67;;;;;;;27.08;55.13;101414.22;4976851;28;20064;-61
2022/08/04 09:13:16;;;;;;;9.95;2.03;;;;;;;27.14;54.33;101420.06;4913042;29;20032;-62
2022/08/04 09:15:56;;;;;;;6.00;1.60;;;;;;;27.20;53.22;101417.59;4974957;28;20049;-61
2022/08/04 09:18:25;;;;;;;3.45;1.80;;;;;;;27.36;53.28;101424.25;5003389;28;20026;-62
2022/08/04 09:21:22;;;;;;;2.60;1.40;;;;;;;27.72;52.29;101427.06;4987562;28;20025;-61
2022/08/04 09:23:54;;;;;;;5.90;2.05;;;;;;;27.65;50.94;101434.09;4986901;28;20014;-61
2022/08/04 09:26:22;;;;;;;8.35;1.65;;;;;;;27.75;51.79;101426.75;5003451;28;20026;-62
2022/08/04 09:28:55;;;;;;;4.07;1.38;;;;;;;27.89;51.38;101438.06;5003431;28;20483;-61
2022/08/04 09:31:23;;;;;;;2.55;1.45;;;;;;;27.84;50.47;101427.69;4986547;28;20492;-61
2022/08/04 09:33:58;;;;;;;7.15;1.48;;;;;;;27.93;50.52;101438.63;4986990;28;20128;-61
2022/08/04 09:36:26;;;;;;;3.75;1.40;;;;;;;27.99;50.55;101447.00;4986712;28;20034;-61
2022/08/04 09:39:14;;;;;;;4.35;1.20;;;;;;;27.89;50.33;101459.75;5003482;28;20077;-61
2022/08/04 09:41:42;;;;;;;3.80;1.50;;;;;;;27.79;50.46;101459.81;4984904;28;20388;-61
2022/08/04 09:44:15;;;;;;;4.30;1.35;;;;;;;27.68;51.07;101471.69;5001145;28;20028;-63
2022/08/04 09:47:18;;;;;;;8.35;2.17;;;;;;;27.59;51.10;101464.44;4985663;28;20060;-61
2022/08/04 09:50:15;;;;;;;3.60;1.73;;;;;;;27.63;51.50;101460.41;5002643;28;20021;-60
2022/08/04 09:53:18;;;;;;;3.40;1.20;;;;;;;27.49;52.10;101456.38;5002047;28;20022;-62
2022/08/04 09:55:47;;;;;;;1.35;1.02;;;;;;;27.46;51.53;101457.53;5005346;28;20436;-60
2022/08/04 09:58:38;;;;;;;4.22;1.27;;;;;;;27.46;51.00;101471.06;5003971;28;20432;-63
2022/08/04 10:01:09;;;;;;;4.05;1.20;;;;;;;27.40;50.35;101481.59;5004915;28;20026;-63
2022/08/04 10:03:38;;;;;;;4.25;1.38;;;;;;;27.57;50.49;101477.28;4996623;28;20045;-62
2022/08/04 10:06:35;;;;;;;5.25;1.70;;;;;;;27.55;50.06;101485.53;4976285;28;20415;-62
2022/08/04 10:09:21;;;;;;;1.60;1.23;;;;;;;27.65;49.84;101487.34;4991094;28;20026;-61
2022/08/04 10:11:50;;;;;;;2.03;1.20;;;;;;;27.65;48.94;101479.25;4991121;28;20437;-61
2022/08/04 10:14:35;;;;;;;1.50;1.20;;;;;;;27.71;49.05;101474.09;4992396;28;20349;-61
2022/08/04 10:17:08;;;;;;;4.93;1.17;;;;;;;27.66;48.91;101481.78;4995254;28;20022;-62
2022/08/04 10:19:40;;;;;;;3.33;1.40;;;;;;;27.91;48.86;101484.81;4994279;28;20478;-62
2022/08/04 10:22:20;;;;;;;1.60;1.10;;;;;;;28.00;48.03;101489.31;4975760;28;20034;-62
2022/08/04 10:24:55;;;;;;;1.70;1.10;;;;;;;28.00;47.79;101493.88;4975481;28;20023;-61
2022/08/04 10:27:41;;;;;;;4.05;1.17;;;;;;;27.89;47.50;101497.66;4991259;28;20034;-62
2022/08/04 10:30:10;;;;;;;2.20;1.30;;;;;;;27.85;47.99;101494.41;5002188;28;20038;-62
2022/08/04 10:33:02;;;;;;;3.47;1.55;;;;;;;28.03;47.40;101493.59;4980060;28;20030;-61
2022/08/04 10:35:32;;;;;;;5.20;1.30;;;;;;;27.94;47.43;101484.53;4995345;28;20484;-61
2022/08/04 10:38:21;;;;;;;2.95;1.30;;;;;;;27.92;47.22;101486.50;4979110;28;20510;-62
2022/08/04 10:40:55;;;;;;;2.38;1.30;;;;;;;27.95;46.18;101494.34;4980455;28;20032;-61
2022/08/04 10:43:39;;;;;;;5.88;1.13;;;;;;;28.05;46.16;101501.56;4969776;28;20088;-61
2022/08/04 10:46:12;;;;;;;9.93;1.80;;;;;;;28.68;45.68;101497.09;4993918;28;20053;-62
2022/08/04 10:49:00;;;;;;;4.70;1.30;;;;;;;28.82;45.25;101490.28;4992105;28;20022;-62
2022/08/04 10:51:44;;;;;;;;;;;;;;;29.00;44.73;101493.00;4995475;28;20023;-61
2022/08/04 10:54:13;;;;;;;4.20;1.45;;;;;;;29.11;43.36;101491.03;4995403;28;19913;-62
2022/08/04 10:56:42;;;;;;;3.35;1.20;;;;;;;29.04;43.60;101498.09;4976201;28;20583;-62
2022/08/04 10:59:10;;;;;;;4.68;1.30;;;;;;;28.99;43.95;101504.84;4976058;28;20037;-62
2022/08/04 11:01:42;;;;;;;12.40;1.75;;;;;;;28.82;44.20;101502.97;4976830;28;20034;-61
2022/08/04 11:04:35;;;;;;;2.47;1.40;;;;;;;28.45;43.69;101503.03;4995124;28;20444;-62
2022/08/04 11:07:00;;;;;;;4.28;1.50;;;;;;;28.27;44.53;101492.16;4976465;28;20516;-65
2022/08/04 11:09:27;;;;;;;2.42;1.33;;;;;;;28.22;44.63;101499.88;5000730;28;20101;-62
2022/08/04 11:11:56;;;;;;;4.93;1.40;;;;;;;27.88;45.28;101502.19;4985495;28;20543;-61
2022/08/04 11:14:25;;;;;;;5.78;1.40;;;;;;;27.87;46.33;101497.78;4986056;28;20049;-62
2022/08/04 11:16:56;;;;;;;4.57;1.40;;;;;;;28.05;45.82;101496.97;4986099;28;20109;-62
2022/08/04 11:19:34;;;;;;;3.80;1.45;;;;;;;28.43;44.80;101491.47;5003994;28;20022;-62
2022/08/04 11:22:14;;;;;;;6.78;1.67;;;;;;;28.23;45.64;101485.34;5006088;28;20080;-60
2022/08/04 11:24:47;;;;;;;5.15;1.45;;;;;;;27.92;47.12;101486.50;4990479;28;20448;-61
2022/08/04 11:27:39;;;;;;;4.40;1.70;;;;;;;28.30;45.70;101494.59;4988871;28;20773;-63
2022/08/04 11:30:07;;;;;;;3.72;1.63;;;;;;;28.42;45.75;101489.78;5007683;28;20034;-61
2022/08/04 11:32:42;;;;;;;4.38;2.10;;;;;;;28.40;46.34;101499.91;5007479;28;20022;-61
2022/08/04 11:35:27;;;;;;;6.60;1.30;;;;;;;28.09;47.49;101495.69;5007423;28;20022;-62
2022/08/04 11:38:01;;;;;;;2.20;1.50;;;;;;;28.23;47.52;101490.75;5007084;28;20030;-62
2022/08/04 11:40:42;;;;;;;3.13;1.40;;;;;;;28.01;47.34;101492.88;4990274;28;20037;-62
2022/08/04 11:43:11;;;;;;;5.35;1.45;;;;;;;28.47;47.99;101492.88;5006149;28;20036;-63
2022/08/04 11:45:44;;;;;;;4.00;1.30;;;;;;;29.00;46.59;101495.72;5007997;28;20046;-62
2022/08/04 11:48:14;;;;;;;4.38;1.13;;;;;;;29.43;45.46;101494.09;4989698;28;20022;-62
2022/08/04 11:50:47;;;;;;;3.72;1.23;;;;;;;29.35;44.90;101486.75;4984451;28;20049;-62
2022/08/04 11:53:16;;;;;;;3.15;1.40;;;;;;;29.38;45.20;101489.16;4996982;28;20022;-62
2022/08/04 11:55:42;;;;;;;3.80;1.33;;;;;;;29.64;43.62;101493.69;4996243;28;20018;-61
2022/08/04 11:58:07;;;;;;;2.78;1.08;;;;;;;29.61;43.99;101491.31;5005571;28;20044;-63
2022/08/04 12:00:37;;;;;;;3.80;1.17;;;;;;;29.37;44.00;101501.00;4989047;28;20038;-62